createdAt,value
2022-10-01T00:00:31.443Z,98852.97
2022-10-01T00:03:17.351Z,98872.53
2022-10-01T00:06:11.200Z,98871.34
2022-10-01T00:08:57.131Z,98864.81
2022-10-01T00:11:42.118Z,98867.84
2022-10-01T00:14:27.540Z,98863.28
2022-10-01T00:17:12.380Z,98866.00
2022-10-01T00:19:57.155Z,98872.38
2022-10-01T00:22:42.212Z,98866.94
2022-10-01T00:25:27.643Z,98871.19
2022-10-01T00:28:12.563Z,98863.63
2022-10-01T00:30:57.835Z,98873.78
2022-10-01T00:33:42.968Z,98867.69
2022-10-01T00:36:29.968Z,98863.84
2022-10-01T00:39:15.182Z,98862.00
2022-10-01T00:42:00.202Z,98862.19
2022-10-01T00:44:45.635Z,98856.66
2022-10-01T00:47:42.468Z,98864.56
2022-10-01T00:50:33.113Z,98862.78
2022-10-01T00:53:20.562Z,98869.03
2022-10-01T00:56:06.837Z,98871.16
2022-10-01T00:58:53.579Z,98864.41
2022-10-01T01:01:38.777Z,98862.84
2022-10-01T01:04:23.829Z,98867.03
2022-10-01T01:07:09.521Z,98868.59
2022-10-01T01:09:55.268Z,98859.63
2022-10-01T01:13:04.065Z,98867.66
2022-10-01T01:16:07.496Z,98862.06
2022-10-01T01:19:04.031Z,98863.56
2022-10-01T01:21:55.968Z,98868.88
2022-10-01T01:24:47.360Z,98878.38
2022-10-01T01:27:37.734Z,98874.72
2022-10-01T01:30:22.874Z,98864.09
2022-10-01T01:33:17.604Z,98861.78
2022-10-01T01:36:15.729Z,98861.03
2022-10-01T01:39:04.430Z,98867.75
2022-10-01T01:41:53.266Z,98868.88
2022-10-01T01:44:40.572Z,98864.75
2022-10-01T01:47:29.009Z,98867.03
2022-10-01T01:50:15.857Z,98862.09
2022-10-01T01:53:01.596Z,98862.59
2022-10-01T01:55:48.677Z,98877.84
2022-10-01T01:58:38.026Z,98875.25
2022-10-01T02:01:40.427Z,98877.59
2022-10-01T02:04:44.201Z,98876.84
2022-10-01T02:08:03.114Z,98873.41
2022-10-01T02:10:54.675Z,98875.22
2022-10-01T02:13:39.365Z,98876.00
2022-10-01T02:16:38.278Z,98873.22
2022-10-01T02:19:34.835Z,98861.97
2022-10-01T02:22:39.763Z,98871.13
2022-10-01T02:25:30.707Z,98878.91
2022-10-01T02:28:22.103Z,98880.66
2022-10-01T02:31:09.374Z,98891.53
2022-10-01T02:33:56.254Z,98897.66
2022-10-01T02:36:44.047Z,98904.59
2022-10-01T02:39:32.539Z,98906.97
2022-10-01T02:42:20.046Z,98902.81
2022-10-01T02:45:07.026Z,98909.59
2022-10-01T02:48:08.523Z,98893.94
2022-10-01T02:51:03.524Z,98899.34
2022-10-01T02:53:55.146Z,98902.69
2022-10-01T02:56:59.255Z,98894.88
2022-10-01T02:59:44.141Z,98900.44
2022-10-01T03:02:30.857Z,98899.81
2022-10-01T03:05:17.351Z,98892.00
2022-10-01T03:08:02.405Z,98887.81
2022-10-01T03:10:47.228Z,98877.84
2022-10-01T03:13:32.059Z,98879.06
2022-10-01T03:16:16.904Z,98896.56
2022-10-01T03:19:02.205Z,98897.53
2022-10-01T03:21:47.760Z,98900.81
2022-10-01T03:24:32.388Z,98901.84
2022-10-01T03:27:17.807Z,98895.72
2022-10-01T03:30:03.242Z,98888.41
2022-10-01T03:32:48.268Z,98896.03
2022-10-01T03:35:33.514Z,98906.19
2022-10-01T03:38:18.355Z,98904.38
2022-10-01T03:41:03.332Z,98912.41
2022-10-01T03:43:48.461Z,98920.53
2022-10-01T03:46:33.534Z,98914.09
2022-10-01T03:49:18.338Z,98913.94
2022-10-01T03:52:05.829Z,98922.75
2022-10-01T03:54:51.067Z,98920.50
2022-10-01T03:57:35.858Z,98909.13
2022-10-01T04:00:20.974Z,98911.97
2022-10-01T04:03:06.581Z,98914.53
2022-10-01T04:05:51.536Z,98910.63
2022-10-01T04:08:37.649Z,98921.97
2022-10-01T04:11:22.381Z,98916.28
2022-10-01T04:14:08.143Z,98920.66
2022-10-01T04:16:52.892Z,98907.53
2022-10-01T04:19:37.893Z,98919.16
2022-10-01T04:22:22.863Z,98913.50
2022-10-01T04:25:10.380Z,98899.56
2022-10-01T04:28:03.560Z,98901.09
2022-10-01T04:30:48.518Z,98905.88
2022-10-01T04:33:33.427Z,98904.06
2022-10-01T04:36:18.372Z,98911.03
2022-10-01T04:39:03.337Z,98901.03
2022-10-01T04:41:48.869Z,98906.22
2022-10-01T04:44:33.732Z,98889.69
2022-10-01T04:47:18.676Z,98894.38
2022-10-01T04:50:04.065Z,98901.38
2022-10-01T04:52:49.850Z,98906.09
2022-10-01T04:55:34.879Z,98903.56
2022-10-01T04:58:19.681Z,98909.03
2022-10-01T05:01:04.993Z,98913.19
2022-10-01T05:03:49.853Z,98911.38
2022-10-01T05:06:34.790Z,98905.69
2022-10-01T05:09:19.843Z,98910.84
2022-10-01T05:12:05.702Z,98911.94
2022-10-01T05:14:54.380Z,98913.00
2022-10-01T05:17:39.258Z,98916.00
2022-10-01T05:20:26.951Z,98905.44
2022-10-01T05:23:12.081Z,98907.09
2022-10-01T05:25:56.946Z,98903.22
2022-10-01T05:28:43.834Z,98918.50
2022-10-01T05:31:29.119Z,98917.97
2022-10-01T05:34:13.976Z,98919.81
2022-10-01T05:36:59.141Z,98928.94
2022-10-01T05:39:43.795Z,98928.97
2022-10-01T05:42:28.897Z,98924.06
2022-10-01T05:45:13.890Z,98943.66
2022-10-01T05:48:01.107Z,98942.81
2022-10-01T05:50:46.692Z,98944.72
2022-10-01T05:53:32.323Z,98935.59
2022-10-01T05:56:17.219Z,98935.94
2022-10-01T05:59:02.556Z,98938.56
2022-10-01T06:01:47.650Z,98946.56
2022-10-01T06:04:34.054Z,98957.53
2022-10-01T06:07:21.554Z,98952.13
2022-10-01T06:10:06.913Z,98952.44
2022-10-01T06:12:51.651Z,98960.16
2022-10-01T06:15:38.480Z,98956.00
2022-10-01T06:18:23.262Z,98948.38
2022-10-01T06:21:09.487Z,98942.53
2022-10-01T06:23:54.238Z,98936.41
2022-10-01T06:26:39.003Z,98932.34
2022-10-01T06:29:23.963Z,98928.81
2022-10-01T06:32:12.839Z,98937.69
2022-10-01T06:34:57.495Z,98941.25
2022-10-01T06:37:42.288Z,98948.31
2022-10-01T06:40:31.587Z,98956.84
2022-10-01T06:43:16.127Z,98950.19
2022-10-01T06:46:02.714Z,98951.03
2022-10-01T06:48:47.677Z,98947.41
2022-10-01T06:51:51.049Z,98946.63
2022-10-01T06:54:35.953Z,98944.03
2022-10-01T06:57:21.015Z,98937.28
2022-10-01T07:00:06.470Z,98927.69
2022-10-01T07:02:51.399Z,98932.69
2022-10-01T07:05:37.847Z,98922.13
2022-10-01T07:08:23.286Z,98923.72
2022-10-01T07:11:08.293Z,98934.38
2022-10-01T07:13:54.682Z,98935.97
2022-10-01T07:16:39.686Z,98928.69
2022-10-01T07:19:24.473Z,98926.41
2022-10-01T07:22:09.586Z,98929.78
2022-10-01T07:24:54.396Z,98935.69
2022-10-01T07:27:39.960Z,98930.19
2022-10-01T07:30:26.260Z,98928.38
2022-10-01T07:33:11.446Z,98931.97
2022-10-01T07:36:00.561Z,98933.22
2022-10-01T07:38:48.121Z,98931.13
2022-10-01T07:41:33.448Z,98934.53
2022-10-01T07:44:19.335Z,98937.13
2022-10-01T07:47:04.166Z,98936.84
2022-10-01T07:49:49.030Z,98942.25
2022-10-01T07:52:34.103Z,98947.19
2022-10-01T07:55:20.440Z,98947.78
2022-10-01T07:58:05.230Z,98939.53
2022-10-01T08:00:52.280Z,98944.72
2022-10-01T08:03:37.206Z,98941.88
2022-10-01T08:06:25.601Z,98942.13
2022-10-01T08:09:10.630Z,98950.69
2022-10-01T08:11:55.887Z,98961.28
2022-10-01T08:14:40.744Z,98958.66
2022-10-01T08:17:29.323Z,98958.66
2022-10-01T08:20:15.461Z,98962.25
2022-10-01T08:23:09.743Z,98966.63
2022-10-01T08:25:59.867Z,98970.81
2022-10-01T08:28:44.391Z,98972.38
2022-10-01T08:31:33.122Z,98966.41
2022-10-01T08:34:18.587Z,98966.94
2022-10-01T08:37:03.552Z,98964.34
2022-10-01T08:39:48.633Z,98967.44
2022-10-01T08:42:49.364Z,98962.22
2022-10-01T08:45:44.416Z,98963.78
2022-10-01T08:48:41.850Z,98959.63
2022-10-01T08:51:44.543Z,98957.78
2022-10-01T08:54:37.220Z,98957.78
2022-10-01T08:57:29.200Z,98951.84
2022-10-01T09:00:15.843Z,98954.44
2022-10-01T09:03:05.938Z,98951.38
2022-10-01T09:05:55.918Z,98952.16
2022-10-01T09:09:09.919Z,98953.19
2022-10-01T09:12:32.187Z,98962.78
2022-10-01T09:15:42.932Z,98958.38
2022-10-01T09:18:27.638Z,98965.13
2022-10-01T09:21:27.583Z,98970.78
2022-10-01T09:24:24.397Z,98960.94
2022-10-01T09:27:18.122Z,98963.50
2022-10-01T09:30:10.918Z,98957.53
2022-10-01T09:33:02.737Z,98950.56
2022-10-01T09:36:04.523Z,98953.16
2022-10-01T09:39:03.452Z,98954.25
2022-10-01T09:41:48.318Z,98953.44
2022-10-01T09:44:33.944Z,98951.66
2022-10-01T09:47:21.731Z,98950.38
2022-10-01T09:50:12.468Z,98940.53
2022-10-01T09:52:59.734Z,98941.34
2022-10-01T09:55:51.829Z,98935.88
2022-10-01T09:58:40.395Z,98924.00
2022-10-01T10:01:59.751Z,98922.97
2022-10-01T10:04:44.541Z,98906.38
2022-10-01T10:07:31.870Z,98902.50
2022-10-01T10:10:24.630Z,98905.13
2022-10-01T10:13:14.122Z,98912.66
2022-10-01T10:15:59.451Z,98912.66
2022-10-01T10:18:51.474Z,98916.03
2022-10-01T10:21:37.237Z,98900.97
2022-10-01T10:24:31.448Z,98907.69
2022-10-01T10:27:35.632Z,98904.56
2022-10-01T10:30:24.439Z,98899.31
2022-10-01T10:33:13.964Z,98903.63
2022-10-01T10:36:02.568Z,98892.16
2022-10-01T10:38:50.421Z,98883.09
2022-10-01T10:41:35.462Z,98882.28
2022-10-01T10:44:23.643Z,98872.03
2022-10-01T10:47:14.218Z,98861.81
2022-10-01T10:50:03.725Z,98864.88
2022-10-01T10:52:48.783Z,98866.88
2022-10-01T10:55:33.967Z,98866.16
2022-10-01T10:58:18.679Z,98859.94
2022-10-01T11:01:12.631Z,98852.84
2022-10-01T11:04:00.393Z,98835.69
2022-10-01T11:06:54.869Z,98831.63
2022-10-01T11:09:58.455Z,98853.88
2022-10-01T11:13:01.384Z,98855.59
2022-10-01T11:15:51.997Z,98858.16
2022-10-01T11:19:12.059Z,98856.72
2022-10-01T11:22:26.805Z,98852.44
2022-10-01T11:25:36.255Z,98854.13
2022-10-01T11:28:24.344Z,98847.91
2022-10-01T11:31:29.886Z,98852.22
2022-10-01T11:34:33.488Z,98854.19
2022-10-01T11:37:43.408Z,98840.06
2022-10-01T11:40:40.920Z,98837.16
2022-10-01T11:43:32.473Z,98828.09
2022-10-01T11:46:55.889Z,98829.78
2022-10-01T11:49:52.382Z,98824.84
2022-10-01T11:52:41.608Z,98829.19
2022-10-01T11:55:54.534Z,98815.69
2022-10-01T11:58:50.245Z,98806.09
2022-10-01T12:02:17.821Z,98808.91
2022-10-01T12:05:05.352Z,98806.09
2022-10-01T12:08:31.273Z,98803.00
2022-10-01T12:11:28.795Z,98801.81
2022-10-01T12:14:21.168Z,98803.84
2022-10-01T12:17:27.920Z,98801.63
2022-10-01T12:20:24.441Z,98791.00
2022-10-01T12:23:35.494Z,98802.22
2022-10-01T12:26:34.174Z,98790.63
2022-10-01T12:29:32.064Z,98784.53
2022-10-01T12:32:29.392Z,98779.75
2022-10-01T12:35:36.783Z,98784.34
2022-10-01T12:38:30.656Z,98787.81
2022-10-01T12:41:43.370Z,98785.91
2022-10-01T12:44:36.090Z,98786.47
2022-10-01T12:47:38.591Z,98791.06
2022-10-01T12:50:38.477Z,98791.53
2022-10-01T12:53:38.225Z,98795.06
2022-10-01T12:56:39.051Z,98788.00
2022-10-01T12:59:34.587Z,98782.56
2022-10-01T13:02:45.360Z,98778.34
2022-10-01T13:06:14.078Z,98778.16
2022-10-01T13:09:06.317Z,98762.78
2022-10-01T13:12:28.433Z,98771.81
2022-10-01T13:15:27.196Z,98776.13
2022-10-01T13:18:41.204Z,98779.06
2022-10-01T13:21:53.766Z,98775.66
2022-10-01T13:24:48.253Z,98776.72
2022-10-01T13:28:02.956Z,98767.84
2022-10-01T13:31:00.334Z,98765.78
2022-10-01T13:33:56.136Z,98764.34
2022-10-01T13:36:40.899Z,98756.75
2022-10-01T13:39:36.592Z,98755.31
2022-10-01T13:42:27.143Z,98749.09
2022-10-01T13:45:40.156Z,98747.94
2022-10-01T13:48:34.148Z,98750.13
2022-10-01T13:51:19.709Z,98753.28
2022-10-01T13:54:11.572Z,98748.00
2022-10-01T13:57:10.731Z,98745.03
2022-10-01T14:00:20.644Z,98742.88
2022-10-01T14:03:33.060Z,98735.03
2022-10-01T14:06:30.069Z,98727.44
2022-10-01T14:09:23.859Z,98726.25
2022-10-01T14:12:52.348Z,98724.03
2022-10-01T14:15:59.507Z,98725.72
2022-10-01T14:18:48.214Z,98712.09
2022-10-01T14:21:51.867Z,98715.84
2022-10-01T14:25:01.181Z,98705.34
2022-10-01T14:28:19.834Z,98713.25
2022-10-01T14:31:44.096Z,98704.25
2022-10-01T14:34:59.379Z,98699.44
2022-10-01T14:37:44.860Z,98691.69
2022-10-01T14:40:41.399Z,98692.50
2022-10-01T14:43:28.820Z,98681.16
2022-10-01T14:46:18.472Z,98691.56
2022-10-01T14:49:03.659Z,98685.88
2022-10-01T14:51:51.163Z,98678.13
2022-10-01T14:54:52.485Z,98674.78
2022-10-01T14:57:48.775Z,98675.34
2022-10-01T15:00:34.159Z,98679.78
2022-10-01T15:03:19.423Z,98674.34
2022-10-01T15:06:11.788Z,98677.44
2022-10-01T15:09:11.169Z,98664.19
2022-10-01T15:11:56.088Z,98657.63
2022-10-01T15:14:42.171Z,98656.84
2022-10-01T15:17:27.149Z,98664.19
2022-10-01T15:20:13.205Z,98651.03
2022-10-01T15:23:01.393Z,98647.47
2022-10-01T15:25:47.326Z,98644.13
2022-10-01T15:28:35.235Z,98633.81
2022-10-01T15:31:21.356Z,98636.44
2022-10-01T15:34:10.452Z,98637.50
2022-10-01T15:36:56.234Z,98632.84
2022-10-01T15:39:47.062Z,98633.38
2022-10-01T15:42:35.903Z,98634.16
2022-10-01T15:45:25.180Z,98632.38
2022-10-01T15:48:39.668Z,98627.19
2022-10-01T15:51:27.549Z,98626.94
2022-10-01T15:54:14.891Z,98613.75
2022-10-01T15:57:01.430Z,98615.56
2022-10-01T15:59:48.176Z,98604.41
2022-10-01T16:02:33.055Z,98598.44
2022-10-01T16:05:21.960Z,98599.50
2022-10-01T16:08:06.797Z,98603.41
2022-10-01T16:11:31.082Z,98597.69
2022-10-01T16:14:21.682Z,98600.06
2022-10-01T16:17:19.424Z,98596.97
2022-10-01T16:20:13.651Z,98595.69
2022-10-01T16:23:35.687Z,98584.78
2022-10-01T16:26:29.424Z,98578.06
2022-10-01T16:29:14.134Z,98572.34
2022-10-01T16:32:00.893Z,98571.06
2022-10-01T16:34:46.082Z,98568.75
2022-10-01T16:37:31.106Z,98560.72
2022-10-01T16:40:18.668Z,98555.03
2022-10-01T16:43:03.494Z,98554.53
2022-10-01T16:45:48.535Z,98557.34
2022-10-01T16:48:33.512Z,98543.13
2022-10-01T16:51:20.154Z,98545.72
2022-10-01T16:54:04.781Z,98531.47
2022-10-01T16:56:51.647Z,98521.13
2022-10-01T16:59:36.376Z,98521.13
2022-10-01T17:02:21.312Z,98504.03
2022-10-01T17:05:16.862Z,98503.25
2022-10-01T17:08:10.278Z,98509.47
2022-10-01T17:10:58.132Z,98504.56
2022-10-01T17:13:42.956Z,98496.28
2022-10-01T17:16:28.955Z,98488.25
2022-10-01T17:19:14.182Z,98491.88
2022-10-01T17:21:58.876Z,98486.69
2022-10-01T17:24:43.996Z,98479.47
2022-10-01T17:27:29.054Z,98478.44
2022-10-01T17:30:14.819Z,98479.22
2022-10-01T17:33:00.855Z,98475.84
2022-10-01T17:35:53.987Z,98489.56
2022-10-01T17:38:39.873Z,98470.94
2022-10-01T17:41:24.948Z,98475.59
2022-10-01T17:44:09.820Z,98464.44
2022-10-01T17:46:54.904Z,98463.69
2022-10-01T17:49:42.556Z,98451.75
2022-10-01T17:52:27.179Z,98436.22
2022-10-01T17:55:12.012Z,98440.09
2022-10-01T17:57:56.987Z,98436.75
2022-10-01T18:00:41.939Z,98432.31
2022-10-01T18:03:26.831Z,98439.34
2022-10-01T18:06:13.663Z,98441.41
2022-10-01T18:08:58.956Z,98438.81
2022-10-01T18:11:43.701Z,98432.59
2022-10-01T18:14:28.897Z,98432.31
2022-10-01T18:17:13.682Z,98434.66
2022-10-01T18:19:58.845Z,98433.09
2022-10-01T18:22:43.700Z,98433.09
2022-10-01T18:25:28.644Z,98437.25
2022-10-01T18:28:13.678Z,98427.91
2022-10-01T18:31:11.048Z,98428.19
2022-10-01T18:34:02.497Z,98418.59
2022-10-01T18:37:04.398Z,98427.13
2022-10-01T18:39:59.535Z,98426.09
2022-10-01T18:43:08.282Z,98426.34
2022-10-01T18:46:14.691Z,98418.56
2022-10-01T18:49:21.198Z,98424.53
2022-10-01T18:52:24.586Z,98418.56
2022-10-01T18:55:42.983Z,98421.94
2022-10-01T18:58:36.320Z,98410.81
2022-10-01T19:01:21.421Z,98409.50
2022-10-01T19:04:22.092Z,98405.09
2022-10-01T19:07:28.785Z,98393.66
2022-10-01T19:10:29.092Z,98383.31
2022-10-01T19:13:44.357Z,98351.44
2022-10-01T19:16:35.596Z,98349.41
2022-10-01T19:19:23.315Z,98368.84
2022-10-01T19:22:21.923Z,98374.56
2022-10-01T19:25:32.989Z,98375.09
2022-10-01T19:28:51.629Z,98363.47
2022-10-01T19:31:55.691Z,98340.97
2022-10-01T19:34:46.012Z,98338.38
2022-10-01T19:37:33.667Z,98344.84
2022-10-01T19:40:44.428Z,98341.50
2022-10-01T19:43:49.245Z,98337.06
2022-10-01T19:46:43.103Z,98329.03
2022-10-01T19:49:35.196Z,98318.41
2022-10-01T19:52:22.105Z,98323.59
2022-10-01T19:55:18.911Z,98303.97
2022-10-01T19:58:20.034Z,98298.03
2022-10-01T20:01:05.589Z,98294.41
2022-10-01T20:04:00.294Z,98283.06
2022-10-01T20:06:46.385Z,98278.94
2022-10-01T20:10:05.868Z,98271.94
2022-10-01T20:13:24.882Z,98262.63
2022-10-01T20:16:35.668Z,98252.53
2022-10-01T20:19:48.706Z,98248.41
2022-10-01T20:22:47.306Z,98235.72
2022-10-01T20:26:00.057Z,98240.91
2022-10-01T20:29:19.721Z,98237.53
2022-10-01T20:32:35.843Z,98222.28
2022-10-01T20:35:50.099Z,98216.59
2022-10-01T20:38:41.975Z,98202.38
2022-10-01T20:41:29.423Z,98201.63
2022-10-01T20:44:21.924Z,98200.84
2022-10-01T20:47:35.974Z,98200.56
2022-10-01T20:50:25.819Z,98200.03
2022-10-01T20:53:38.139Z,98189.69
2022-10-01T20:56:29.931Z,98180.34
2022-10-01T20:59:22.880Z,98181.94
2022-10-01T21:02:34.407Z,98176.56
2022-10-01T21:05:25.797Z,98187.69
2022-10-01T21:08:17.356Z,98173.97
2022-10-01T21:11:10.931Z,98172.47
2022-10-01T21:14:18.490Z,98168.81
2022-10-01T21:17:06.139Z,98167.81
2022-10-01T21:20:13.037Z,98164.94
2022-10-01T21:23:28.715Z,98157.44
2022-10-01T21:26:16.856Z,98161.00
2022-10-01T21:29:21.502Z,98157.38
2022-10-01T21:32:32.929Z,98158.66
2022-10-01T21:35:20.516Z,98158.38
2022-10-01T21:38:18.707Z,98150.06
2022-10-01T21:41:13.118Z,98143.38
2022-10-01T21:44:10.824Z,98155.25
2022-10-01T21:47:16.746Z,98154.47
2022-10-01T21:50:11.489Z,98152.91
2022-10-01T21:53:15.106Z,98148.50
2022-10-01T21:56:18.134Z,98141.53
2022-10-01T21:59:23.877Z,98129.63
2022-10-01T22:02:57.097Z,98120.28
2022-10-01T22:06:12.192Z,98112.03
2022-10-01T22:09:22.148Z,98108.66
2022-10-01T22:12:07.346Z,98118.25
2022-10-01T22:14:53.202Z,98103.50
2022-10-01T22:17:38.966Z,98088.75
2022-10-01T22:20:28.566Z,98086.16
2022-10-01T22:23:17.026Z,98081.25
2022-10-01T22:26:10.175Z,98075.56
2022-10-01T22:28:56.082Z,98074.03
2022-10-01T22:31:42.341Z,98070.97
2022-10-01T22:34:41.091Z,98063.19
2022-10-01T22:37:33.470Z,98051.00
2022-10-01T22:40:28.688Z,98037.03
2022-10-01T22:43:14.060Z,98030.59
2022-10-01T22:46:20.779Z,98036.78
2022-10-01T22:49:33.218Z,98018.47
2022-10-01T22:52:57.891Z,98020.81
2022-10-01T22:56:11.757Z,98006.59
2022-10-01T22:59:08.109Z,97992.88
2022-10-01T23:02:25.672Z,97982.53
2022-10-01T23:05:48.340Z,97976.09
2022-10-01T23:08:49.828Z,97974.56
2022-10-01T23:11:34.495Z,97981.81
2022-10-01T23:14:34.392Z,97978.19
2022-10-01T23:17:35.733Z,97958.75
2022-10-01T23:20:32.389Z,97961.81
2022-10-01T23:23:22.816Z,97950.69
2022-10-01T23:26:31.572Z,97941.41
2022-10-01T23:29:28.676Z,97945.81
2022-10-01T23:32:31.638Z,97944.78
2022-10-01T23:35:21.244Z,97938.84
2022-10-01T23:38:31.810Z,97929.53
2022-10-01T23:41:25.061Z,97929.25
2022-10-01T23:44:21.423Z,97923.78
2022-10-01T23:47:12.003Z,97927.97
2022-10-01T23:49:59.095Z,97924.81
2022-10-01T23:52:53.452Z,97924.56
2022-10-01T23:56:03.571Z,97910.84
2022-10-01T23:59:04.488Z,97904.09
